Terminal Aerodrome Forecast
Issued by NWS

Current Version | Previous Version | Text Only | Print | Product List | Glossary On
Versions: 1 2 3 4 5 6 7 8 9 10 11 12 13 14 15 16 17 18 19 20 21 22 23 24 25 26 27 28 29 30 31 32 33 34
007
FTUS41 KBOX 251733
TAFHYA
TAF
KHYA 251733Z 2518/2618 11014G28KT 3SM -RA BR OVC015
     FM252100 10012G24KT 6SM -RA BR OVC008 WS020/13035KT
     FM260100 33006KT 1/2SM FG OVC003
     FM260500 31007KT 1/4SM FG OVC003
     FM261200 30007G18KT 1SM BR BKN100
     FM261400 30008KT P6SM BKN130=

USA.gov is the U.S. government's official web portal to all federal, state and local government web resources and services.